createdAt,value
2022-10-20T00:02:21.664Z,28.57
2022-10-20T00:04:49.911Z,27.07
2022-10-20T00:07:18.326Z,25.73
2022-10-20T00:09:46.655Z,24.50
2022-10-20T00:12:16.460Z,25.13
2022-10-20T00:14:44.635Z,28.80
2022-10-20T00:17:12.957Z,23.63
2022-10-20T00:19:41.197Z,28.20
2022-10-20T00:22:09.847Z,27.60
2022-10-20T00:24:38.148Z,30.27
2022-10-20T00:27:06.596Z,28.13
2022-10-20T00:29:36.252Z,26.33
2022-10-20T00:32:04.739Z,29.60
2022-10-20T00:34:34.022Z,23.33
2022-10-20T00:37:02.436Z,30.50
2022-10-20T00:39:30.989Z,26.90
2022-10-20T00:42:02.857Z,25.60
2022-10-20T00:44:54.677Z,30.73
2022-10-20T00:47:36.688Z,26.20
2022-10-20T00:50:09.575Z,26.97
2022-10-20T00:52:39.042Z,28.80
2022-10-20T00:55:10.370Z,24.63
2022-10-20T00:57:39.881Z,27.87
2022-10-20T01:00:10.710Z,21.27
2022-10-20T01:02:39.219Z,26.30
2022-10-20T01:05:08.880Z,24.83
2022-10-20T01:07:37.990Z,26.33
2022-10-20T01:10:08.085Z,28.67
2022-10-20T01:12:42.317Z,25.50
2022-10-20T01:15:19.260Z,21.87
2022-10-20T01:17:59.033Z,26.93
2022-10-20T01:20:55.992Z,28.87
2022-10-20T01:24:01.287Z,21.80
2022-10-20T01:26:59.313Z,27.03
2022-10-20T01:29:34.969Z,27.93
2022-10-20T01:32:11.113Z,24.33
2022-10-20T01:34:48.067Z,30.10
2022-10-20T01:37:40.535Z,26.73
2022-10-20T01:40:22.536Z,28.87
2022-10-20T01:42:53.230Z,30.30
2022-10-20T01:45:26.841Z,25.80
2022-10-20T01:47:55.878Z,25.80
2022-10-20T01:50:25.989Z,25.63
2022-10-20T01:52:57.343Z,28.77
2022-10-20T01:55:26.532Z,24.30
2022-10-20T01:58:20.999Z,23.90
2022-10-20T02:00:52.698Z,30.13
2022-10-20T02:03:36.564Z,23.30
2022-10-20T02:06:17.754Z,24.67
2022-10-20T02:08:49.107Z,22.63
2022-10-20T02:11:23.750Z,25.90
2022-10-20T02:13:53.524Z,21.20
2022-10-20T02:16:29.875Z,36.53
2022-10-20T02:19:00.307Z,21.87
2022-10-20T02:21:29.256Z,24.20
2022-10-20T02:24:00.452Z,30.50
2022-10-20T02:26:30.722Z,22.90
2022-10-20T02:29:02.107Z,28.17
2022-10-20T02:31:32.729Z,25.23
2022-10-20T02:34:01.280Z,22.40
2022-10-20T02:36:31.498Z,26.00
2022-10-20T02:38:59.615Z,29.50
2022-10-20T02:41:27.992Z,28.27
2022-10-20T02:43:56.112Z,26.87
2022-10-20T02:46:25.448Z,26.17
2022-10-20T02:48:55.074Z,26.23
2022-10-20T02:51:23.443Z,24.97
2022-10-20T02:53:51.588Z,26.23
2022-10-20T02:56:20.237Z,22.40
2022-10-20T02:58:48.426Z,27.87
2022-10-20T03:01:16.821Z,23.13
2022-10-20T03:03:45.227Z,24.40
2022-10-20T03:06:16.937Z,26.23
2022-10-20T03:08:45.313Z,29.60
2022-10-20T03:11:13.712Z,26.80
2022-10-20T03:13:41.902Z,31.67
2022-10-20T03:16:10.555Z,23.93
2022-10-20T03:18:38.825Z,26.23
2022-10-20T03:21:07.318Z,28.63
2022-10-20T03:23:36.848Z,23.53
2022-10-20T03:26:06.944Z,24.27
2022-10-20T03:28:35.334Z,32.70
2022-10-20T03:31:04.595Z,25.67
2022-10-20T03:33:32.960Z,26.83
2022-10-20T03:36:01.581Z,34.37
2022-10-20T03:38:29.767Z,28.33
2022-10-20T03:40:59.527Z,26.70
2022-10-20T03:43:27.637Z,31.73
2022-10-20T03:46:03.706Z,22.87
2022-10-20T03:48:32.287Z,27.53
2022-10-20T03:51:01.608Z,29.87
2022-10-20T03:53:30.547Z,32.03
2022-10-20T03:56:00.366Z,26.57
2022-10-20T03:58:28.526Z,31.80
2022-10-20T04:00:56.848Z,22.50
2022-10-20T04:03:25.021Z,31.93
2022-10-20T04:05:53.580Z,32.40
2022-10-20T04:08:21.664Z,29.27
2022-10-20T04:10:50.073Z,28.30
2022-10-20T04:13:19.660Z,30.83
2022-10-20T04:15:47.990Z,25.73
2022-10-20T04:18:16.231Z,24.87
2022-10-20T04:20:44.859Z,29.10
2022-10-20T04:23:13.572Z,29.67
2022-10-20T04:25:45.568Z,30.63
2022-10-20T04:28:14.256Z,32.77
2022-10-20T04:30:44.435Z,26.77
2022-10-20T04:33:13.621Z,24.90
2022-10-20T04:35:42.276Z,29.57
2022-10-20T04:38:10.585Z,28.87
2022-10-20T04:40:38.878Z,24.93
2022-10-20T04:43:06.937Z,29.87
2022-10-20T04:45:35.677Z,28.73
2022-10-20T04:48:06.026Z,32.43
2022-10-20T04:50:34.538Z,30.27
2022-10-20T04:53:08.901Z,41.70
2022-10-20T04:55:37.500Z,33.30
2022-10-20T04:58:05.647Z,30.90
2022-10-20T05:00:34.469Z,35.00
2022-10-20T05:03:02.599Z,40.67
2022-10-20T05:05:32.364Z,37.63
2022-10-20T05:08:00.511Z,35.83
2022-10-20T05:10:31.048Z,41.00
2022-10-20T05:13:01.487Z,36.17
2022-10-20T05:15:30.096Z,30.50
2022-10-20T05:17:59.299Z,35.17
2022-10-20T05:20:30.909Z,37.43
2022-10-20T05:23:00.545Z,32.13
2022-10-20T05:25:36.589Z,33.17
2022-10-20T05:28:05.517Z,31.90
2022-10-20T05:30:35.371Z,25.47
2022-10-20T05:33:03.721Z,24.57
2022-10-20T05:35:32.405Z,28.30
2022-10-20T05:38:01.852Z,29.03
2022-10-20T05:40:30.169Z,24.83
2022-10-20T05:42:58.650Z,30.60
2022-10-20T05:45:26.972Z,24.13
2022-10-20T05:47:55.065Z,23.00
2022-10-20T05:50:23.686Z,31.07
2022-10-20T05:52:52.116Z,29.57
2022-10-20T05:55:21.816Z,28.37
2022-10-20T05:57:50.615Z,31.20
2022-10-20T06:00:29.403Z,24.43
2022-10-20T06:02:58.015Z,30.50
2022-10-20T06:05:26.376Z,32.67
2022-10-20T06:07:55.310Z,27.80
2022-10-20T06:10:25.326Z,30.83
2022-10-20T06:12:53.412Z,42.83
2022-10-20T06:15:22.079Z,36.07
2022-10-20T06:17:50.288Z,31.83
2022-10-20T06:20:19.278Z,33.40
2022-10-20T06:22:47.348Z,33.83
2022-10-20T06:25:15.776Z,33.13
2022-10-20T06:27:45.453Z,42.07
2022-10-20T06:30:13.700Z,30.77
2022-10-20T06:32:42.012Z,37.83
2022-10-20T06:35:10.558Z,35.07
2022-10-20T06:37:39.167Z,48.77
2022-10-20T06:40:08.494Z,40.00
2022-10-20T06:42:37.031Z,39.90
2022-10-20T06:45:09.335Z,40.07
2022-10-20T06:47:38.216Z,34.80
2022-10-20T06:50:08.132Z,37.63
2022-10-20T06:52:36.367Z,31.13
2022-10-20T06:55:05.131Z,38.60
2022-10-20T06:57:34.012Z,33.93
2022-10-20T07:00:02.792Z,34.13
2022-10-20T07:02:32.453Z,30.57
2022-10-20T07:05:00.821Z,32.43
2022-10-20T07:07:29.105Z,40.33
2022-10-20T07:09:57.945Z,34.47
2022-10-20T07:12:26.253Z,35.03
2022-10-20T07:14:54.681Z,36.27
2022-10-20T07:17:23.169Z,32.43
2022-10-20T07:19:53.220Z,33.33
2022-10-20T07:22:21.362Z,38.03
2022-10-20T07:24:50.205Z,33.80
2022-10-20T07:27:18.713Z,32.10
2022-10-20T07:29:47.074Z,27.90
2022-10-20T07:32:15.224Z,25.33
2022-10-20T07:34:43.569Z,27.80
2022-10-20T07:37:13.171Z,27.33
2022-10-20T07:39:41.634Z,26.27
2022-10-20T07:42:09.740Z,27.47
2022-10-20T07:44:38.194Z,28.83
2022-10-20T07:47:06.534Z,27.83
2022-10-20T07:49:50.234Z,23.50
2022-10-20T07:52:20.073Z,21.17
2022-10-20T07:54:48.508Z,27.00
2022-10-20T07:57:16.665Z,25.53
2022-10-20T07:59:45.179Z,25.90
2022-10-20T08:02:13.716Z,26.80
2022-10-20T08:04:44.103Z,23.00
2022-10-20T08:07:12.506Z,23.47
2022-10-20T08:09:42.240Z,23.20
2022-10-20T08:12:10.543Z,23.60
2022-10-20T08:14:38.849Z,25.83
2022-10-20T08:17:07.160Z,22.33
2022-10-20T08:22:29.748Z,25.10
2022-10-20T08:24:59.489Z,23.07
2022-10-20T08:27:27.974Z,23.03
2022-10-20T08:30:06.104Z,19.57
2022-10-20T08:32:40.562Z,19.07
2022-10-20T08:35:09.940Z,25.27
2022-10-20T08:37:38.680Z,20.77
2022-10-20T08:40:11.607Z,23.03
2022-10-20T08:42:44.388Z,27.50
2022-10-20T08:45:16.659Z,21.13
2022-10-20T08:47:45.911Z,28.03
2022-10-20T08:50:16.958Z,20.27
2022-10-20T08:52:46.155Z,22.30
2022-10-20T08:55:23.298Z,22.77
2022-10-20T08:57:51.490Z,23.80
2022-10-20T09:00:22.960Z,21.63
2022-10-20T09:02:52.428Z,24.20
2022-10-20T09:05:26.742Z,20.27
2022-10-20T09:07:55.838Z,20.43
2022-10-20T09:10:34.532Z,28.10
2022-10-20T09:13:03.236Z,21.73
2022-10-20T09:15:32.427Z,16.53
2022-10-20T09:18:03.721Z,29.87
2022-10-20T09:20:37.312Z,21.87
2022-10-20T09:23:16.650Z,18.10
2022-10-20T09:25:55.860Z,16.40
2022-10-20T09:28:26.778Z,23.47
2022-10-20T09:30:55.630Z,14.43
2022-10-20T09:33:29.728Z,16.53
2022-10-20T09:36:04.733Z,15.27
2022-10-20T09:38:36.519Z,10.70
2022-10-20T09:41:12.691Z,10.03
2022-10-20T09:43:47.881Z,12.73
2022-10-20T09:46:20.168Z,16.20
2022-10-20T09:48:49.731Z,21.50
2022-10-20T09:51:21.135Z,12.13
2022-10-20T09:53:56.221Z,11.60
2022-10-20T09:56:28.058Z,17.53
2022-10-20T09:58:57.721Z,14.97
2022-10-20T10:01:26.303Z,15.17
2022-10-20T10:03:59.800Z,20.33
2022-10-20T10:06:32.266Z,13.90
2022-10-20T10:09:02.438Z,14.03
2022-10-20T10:11:36.458Z,11.93
2022-10-20T10:14:05.989Z,19.77
2022-10-20T10:16:42.733Z,17.10
2022-10-20T10:19:18.472Z,16.80
2022-10-20T10:21:49.494Z,15.17
2022-10-20T10:24:41.128Z,15.37
2022-10-20T10:27:23.519Z,17.50
2022-10-20T10:29:52.325Z,18.47
2022-10-20T10:32:25.526Z,13.33
2022-10-20T10:35:08.741Z,11.87
2022-10-20T10:37:39.618Z,14.13
2022-10-20T10:40:16.061Z,18.47
2022-10-20T10:43:12.607Z,14.20
2022-10-20T10:45:49.278Z,19.90
2022-10-20T10:48:50.677Z,14.73
2022-10-20T10:51:26.413Z,17.07
2022-10-20T10:54:09.388Z,11.57
2022-10-20T10:56:45.826Z,15.10
2022-10-20T10:59:24.606Z,11.47
2022-10-20T11:02:41.424Z,13.17
2022-10-20T11:05:26.685Z,12.80
2022-10-20T11:08:10.351Z,18.13
2022-10-20T11:10:48.249Z,10.87
2022-10-20T11:13:27.129Z,14.00
2022-10-20T11:16:08.970Z,13.23
2022-10-20T11:19:08.187Z,14.13
2022-10-20T11:21:46.454Z,11.90
2022-10-20T11:24:26.912Z,13.17
2022-10-20T11:27:03.903Z,6.97
2022-10-20T11:29:38.422Z,14.03
2022-10-20T11:32:18.981Z,12.30
2022-10-20T11:34:55.583Z,14.60
2022-10-20T11:37:27.258Z,11.98
2022-10-20T11:40:07.634Z,13.47
2022-10-20T11:42:44.524Z,9.63
2022-10-20T11:45:31.027Z,11.00
2022-10-20T11:48:05.404Z,13.18
2022-10-20T11:50:35.567Z,13.88
2022-10-20T11:53:26.919Z,14.48
2022-10-20T11:56:15.212Z,16.13
2022-10-20T11:59:04.572Z,11.75
2022-10-20T12:01:38.630Z,15.23
2022-10-20T12:04:38.875Z,13.45
2022-10-20T12:07:32.550Z,10.10
2022-10-20T12:10:27.271Z,11.73
2022-10-20T12:13:05.835Z,13.00
2022-10-20T12:15:34.528Z,16.30
2022-10-20T12:18:06.742Z,13.55
2022-10-20T12:21:04.151Z,15.27
2022-10-20T12:24:02.367Z,7.90
2022-10-20T12:27:07.117Z,11.32
2022-10-20T12:30:00.051Z,10.63
2022-10-20T12:32:53.686Z,16.33
2022-10-20T12:35:31.645Z,11.82
2022-10-20T12:38:04.329Z,11.98
2022-10-20T12:40:35.372Z,14.00
2022-10-20T12:43:03.959Z,14.38
2022-10-20T12:45:40.436Z,15.82
2022-10-20T12:48:20.093Z,11.75
2022-10-20T12:50:50.229Z,14.20
2022-10-20T12:53:26.763Z,14.55
2022-10-20T12:55:59.453Z,15.30
2022-10-20T12:58:32.591Z,15.27
2022-10-20T13:01:14.702Z,23.88
2022-10-20T13:03:48.200Z,10.00
2022-10-20T13:06:43.355Z,16.20
2022-10-20T13:09:24.033Z,14.27
2022-10-20T13:12:04.407Z,11.30
2022-10-20T13:14:51.677Z,16.42
2022-10-20T13:17:38.344Z,17.52
2022-10-20T13:20:21.412Z,10.70
2022-10-20T13:22:52.223Z,11.68
2022-10-20T13:25:35.112Z,14.90
2022-10-20T13:28:13.930Z,13.93
2022-10-20T13:30:57.118Z,13.07
2022-10-20T13:33:58.875Z,17.95
2022-10-20T13:36:28.160Z,17.40
2022-10-20T13:39:03.284Z,19.63
2022-10-20T13:41:44.601Z,7.72
2022-10-20T13:44:31.514Z,12.20
2022-10-20T13:47:08.181Z,21.60
2022-10-20T13:49:52.991Z,14.98
2022-10-20T13:52:22.481Z,14.98
2022-10-20T13:54:52.505Z,17.90
2022-10-20T13:57:28.980Z,13.68
2022-10-20T13:59:58.711Z,18.92
2022-10-20T14:02:28.942Z,16.13
2022-10-20T14:05:05.665Z,14.38
2022-10-20T14:07:38.605Z,11.18
2022-10-20T14:10:08.019Z,16.90
2022-10-20T14:12:37.963Z,13.00
2022-10-20T14:15:09.020Z,13.95
2022-10-20T14:17:40.686Z,20.00
2022-10-20T14:20:16.660Z,15.45
2022-10-20T14:22:45.317Z,11.07
2022-10-20T14:25:13.965Z,15.35
2022-10-20T14:27:45.146Z,21.73
2022-10-20T14:30:17.220Z,14.02
2022-10-20T14:32:47.733Z,12.27
2022-10-20T14:35:26.121Z,20.55
2022-10-20T14:37:59.438Z,22.52
2022-10-20T14:40:30.758Z,12.90
2022-10-20T14:43:05.237Z,19.98
2022-10-20T14:45:34.364Z,9.35
2022-10-20T14:48:04.176Z,15.75
2022-10-20T14:50:37.674Z,15.07
2022-10-20T14:53:31.908Z,19.90
2022-10-20T14:56:02.621Z,8.77
2022-10-20T14:58:38.585Z,10.80
2022-10-20T15:01:28.626Z,12.13
2022-10-20T15:06:37.362Z,17.17
2022-10-20T15:09:05.930Z,16.25
2022-10-20T15:11:34.464Z,17.40
2022-10-20T15:14:04.428Z,10.13
2022-10-20T15:16:52.118Z,19.10
2022-10-20T15:19:29.414Z,23.85
2022-10-20T15:22:01.451Z,20.50
2022-10-20T15:24:30.204Z,20.30
2022-10-20T15:26:58.921Z,16.52
2022-10-20T15:29:29.200Z,17.77
2022-10-20T15:31:57.708Z,15.82
2022-10-20T15:34:26.632Z,14.73
2022-10-20T15:36:55.607Z,16.27
2022-10-20T15:39:23.969Z,21.60
2022-10-20T15:41:53.910Z,18.33
2022-10-20T15:44:23.502Z,14.80
2022-10-20T15:46:54.441Z,18.10
2022-10-20T15:49:23.857Z,15.37
2022-10-20T15:51:52.435Z,14.67
2022-10-20T15:54:22.844Z,17.73
2022-10-20T15:56:51.381Z,15.87
2022-10-20T15:59:19.764Z,10.63
2022-10-20T16:01:48.075Z,19.60
2022-10-20T16:04:20.215Z,12.10
2022-10-20T16:06:48.506Z,11.00
2022-10-20T16:09:16.864Z,19.57
2022-10-20T16:11:45.561Z,12.10
2022-10-20T16:14:15.506Z,14.77
2022-10-20T16:16:45.098Z,15.90
2022-10-20T16:19:13.826Z,18.63
2022-10-20T16:21:43.439Z,13.77
2022-10-20T16:24:12.181Z,22.17
2022-10-20T16:26:40.962Z,15.87
2022-10-20T16:29:09.318Z,13.27
2022-10-20T16:31:37.465Z,17.93
2022-10-20T16:34:05.808Z,26.60
2022-10-20T16:36:34.889Z,20.57
2022-10-20T16:39:05.230Z,13.67
2022-10-20T16:41:33.489Z,20.60
2022-10-20T16:44:01.889Z,17.73
2022-10-20T16:46:30.101Z,16.37
2022-10-20T16:48:58.694Z,21.80
2022-10-20T16:51:26.946Z,11.20
2022-10-20T16:53:57.335Z,13.70
2022-10-20T16:56:29.216Z,20.43
2022-10-20T16:58:58.359Z,16.00
2022-10-20T17:01:26.766Z,15.00
2022-10-20T17:03:55.329Z,18.60
2022-10-20T17:06:25.257Z,18.40
2022-10-20T17:08:55.068Z,16.37
2022-10-20T17:11:25.380Z,16.93
2022-10-20T17:13:55.962Z,15.17
2022-10-20T17:16:28.815Z,12.30
2022-10-20T17:18:58.759Z,17.80
2022-10-20T17:21:27.826Z,11.73
2022-10-20T17:23:56.691Z,16.70
2022-10-20T17:26:27.809Z,17.37
2022-10-20T17:28:59.054Z,19.73
2022-10-20T17:31:28.085Z,16.63
2022-10-20T17:33:58.362Z,21.07
2022-10-20T17:36:27.821Z,17.00
2022-10-20T17:38:58.620Z,16.63
2022-10-20T17:41:27.422Z,14.20
2022-10-20T17:43:59.568Z,14.50
2022-10-20T17:46:28.031Z,19.17
2022-10-20T17:48:56.399Z,19.53
2022-10-20T17:51:29.031Z,12.60
2022-10-20T17:54:00.632Z,19.47
2022-10-20T17:56:32.157Z,15.20
2022-10-20T17:59:03.926Z,20.17
2022-10-20T18:01:34.290Z,19.53
2022-10-20T18:04:05.824Z,17.00
2022-10-20T18:06:35.576Z,18.90
2022-10-20T18:09:06.613Z,20.60
2022-10-20T18:11:36.498Z,14.57
2022-10-20T18:14:06.637Z,21.10
2022-10-20T18:16:38.019Z,24.03
2022-10-20T18:19:07.675Z,21.43
2022-10-20T18:21:36.230Z,17.13
2022-10-20T18:24:06.840Z,21.93
2022-10-20T18:26:37.761Z,16.53
2022-10-20T18:29:09.556Z,18.47
2022-10-20T18:31:39.866Z,18.50
2022-10-20T18:34:10.950Z,21.23
2022-10-20T18:36:43.388Z,27.60
2022-10-20T18:39:15.695Z,23.37
2022-10-20T18:41:45.514Z,20.57
2022-10-20T18:44:17.514Z,20.33
2022-10-20T18:46:46.763Z,26.23
2022-10-20T18:49:16.930Z,22.20
2022-10-20T18:51:47.370Z,23.40
2022-10-20T18:54:16.131Z,23.53
2022-10-20T18:56:45.535Z,21.53
2022-10-20T18:59:17.276Z,19.60
2022-10-20T19:01:48.207Z,21.23
2022-10-20T19:04:16.797Z,17.67
2022-10-20T19:06:47.028Z,22.13
2022-10-20T19:09:18.277Z,15.80
2022-10-20T19:11:47.772Z,15.70
2022-10-20T19:14:18.117Z,18.03
2022-10-20T19:16:47.770Z,15.23
2022-10-20T19:19:16.692Z,21.10
2022-10-20T19:21:45.172Z,26.90
2022-10-20T19:24:16.608Z,14.87
2022-10-20T19:26:57.207Z,20.80
2022-10-20T19:29:36.764Z,13.97
2022-10-20T19:32:07.548Z,17.90
2022-10-20T19:34:38.166Z,17.50
2022-10-20T19:37:07.109Z,20.00
2022-10-20T19:39:37.995Z,21.47
2022-10-20T19:42:08.179Z,24.10
2022-10-20T19:44:38.991Z,20.60
2022-10-20T19:47:08.117Z,20.30
2022-10-20T19:49:37.652Z,28.47
2022-10-20T19:52:06.379Z,21.47
2022-10-20T19:54:35.069Z,18.33
2022-10-20T19:57:03.391Z,21.77
2022-10-20T19:59:32.057Z,20.20
2022-10-20T20:02:01.810Z,18.33
2022-10-20T20:04:30.229Z,22.20
2022-10-20T20:07:02.448Z,20.20
2022-10-20T20:09:31.170Z,16.73
2022-10-20T20:11:59.650Z,21.70
2022-10-20T20:14:28.881Z,14.63
2022-10-20T20:16:57.174Z,19.37
2022-10-20T20:19:27.043Z,20.73
2022-10-20T20:21:55.324Z,18.43
2022-10-20T20:24:23.802Z,19.00
2022-10-20T20:26:52.012Z,21.93
2022-10-20T20:29:20.388Z,19.63
2022-10-20T20:31:49.040Z,28.73
2022-10-20T20:34:17.601Z,28.30
2022-10-20T20:36:47.141Z,17.47
2022-10-20T20:39:15.662Z,27.63
2022-10-20T20:41:44.004Z,30.70
2022-10-20T20:44:12.626Z,27.20
2022-10-20T20:46:40.971Z,26.00
2022-10-20T20:49:09.769Z,26.20
2022-10-20T20:51:38.118Z,26.23
2022-10-20T20:54:08.885Z,25.30
2022-10-20T20:56:37.405Z,20.63
2022-10-20T20:59:05.820Z,26.20
2022-10-20T21:01:34.002Z,26.33
2022-10-20T21:04:03.944Z,29.10
2022-10-20T21:06:49.383Z,29.20
2022-10-20T21:09:23.987Z,27.40
2022-10-20T21:11:52.185Z,25.80
2022-10-20T21:14:20.545Z,25.80
2022-10-20T21:16:48.750Z,27.60
2022-10-20T21:19:17.321Z,30.87
2022-10-20T21:21:50.716Z,24.43
2022-10-20T21:24:19.828Z,22.90
2022-10-20T21:26:49.385Z,26.03
2022-10-20T21:29:18.384Z,17.83
2022-10-20T21:31:46.771Z,21.60
2022-10-20T21:34:15.459Z,24.63
2022-10-20T21:36:44.344Z,20.30
2022-10-20T21:39:16.610Z,22.17
2022-10-20T21:41:46.494Z,23.87
2022-10-20T21:44:16.346Z,26.37
2022-10-20T21:46:49.222Z,23.37
2022-10-20T21:49:19.525Z,28.80
2022-10-20T21:51:49.902Z,23.30
2022-10-20T21:56:54.033Z,27.00
2022-10-20T21:59:25.336Z,31.33
2022-10-20T22:01:55.546Z,24.87
2022-10-20T22:04:26.682Z,34.63
2022-10-20T22:06:56.125Z,33.97
2022-10-20T22:09:24.972Z,31.00
2022-10-20T22:11:55.110Z,28.50
2022-10-20T22:14:25.110Z,27.27
2022-10-20T22:16:55.392Z,30.33
2022-10-20T22:19:25.027Z,25.67
2022-10-20T22:21:54.193Z,27.37
2022-10-20T22:24:23.783Z,35.53
2022-10-20T22:26:53.089Z,33.60
2022-10-20T22:29:24.192Z,33.13
2022-10-20T22:31:52.538Z,32.30
2022-10-20T22:34:21.044Z,34.93
2022-10-20T22:36:49.546Z,26.80
2022-10-20T22:39:18.094Z,29.93
2022-10-20T22:41:46.302Z,28.70
2022-10-20T22:44:14.696Z,32.60
2022-10-20T22:46:44.290Z,26.37
2022-10-20T22:49:14.077Z,34.07
2022-10-20T22:51:42.323Z,23.90
2022-10-20T22:54:10.858Z,28.17
2022-10-20T22:56:39.178Z,32.60
2022-10-20T22:59:07.603Z,25.17
2022-10-20T23:01:35.837Z,24.13
2022-10-20T23:04:05.743Z,24.93
2022-10-20T23:06:33.948Z,25.57
2022-10-20T23:09:02.486Z,26.77
2022-10-20T23:11:31.299Z,30.50
2022-10-20T23:13:59.932Z,21.97
2022-10-20T23:16:28.186Z,22.33
2022-10-20T23:18:56.667Z,27.77
2022-10-20T23:21:26.513Z,27.93
2022-10-20T23:23:55.826Z,25.60
2022-10-20T23:26:23.976Z,29.53
2022-10-20T23:28:52.749Z,27.73
2022-10-20T23:31:22.491Z,26.07
2022-10-20T23:33:55.988Z,29.30
2022-10-20T23:36:25.851Z,21.83
2022-10-20T23:38:54.885Z,23.57
2022-10-20T23:41:23.183Z,25.63
2022-10-20T23:43:51.575Z,24.63
2022-10-20T23:46:19.812Z,23.27
2022-10-20T23:48:48.433Z,28.20
2022-10-20T23:51:16.680Z,17.33
2022-10-20T23:53:46.435Z,21.13
2022-10-20T23:56:14.677Z,25.20
2022-10-20T23:58:43.681Z,30.57
